Climatologie pour Saint-Brevin les Pins
Jour • Résumé pour mars 17, 2017 Système :  Métrique    Anglais   Mixte
« - 1 jour
+ 1 jour »
Jour Semaine Mois Année Personnalisé
  Maximum : Minimum : Moyenne :
Température sous abri : -17.8 °C -13.9 °C -12.1 °C
Point de rosée : -17.8 °C -14.8 °C -13.5 °C
Humidité : Humidity % 62 % 85 %
Vitesse du vent : 0 km/h 0 km/h 11.4 km/h
Rafale : 0 km/h - -
Direction :- - South
Pression : 0 hPa 34554.1 hPa -
Précipitations : 0 mm    
Historical Graphs
 
 
Tableau de données pour mars 17, 2017
Heure Tempé Pt rosée Pression Vent Vitesse Rafale Humidité Taux pluie (/hr) Soleil
-17.8 °C -17.8 °C 0 hPa Calm     Humidity % 0 mm SolarRadiationWatts/m^2 W/m2 Conditions
00:00 -13.9 °C -14.1 °C 34567.7 hPa North 20.8 km/h 25.9 km/h 98 % 0 mm 0 W/m2
00:05 -13.4 °C -13.6 °C 34567.7 hPa NE 12.9 km/h 33.6 km/h 98 % 0 mm 0 W/m2
00:10 -13.3 °C -13.4 °C 34567.7 hPa NE 10.3 km/h 33.6 km/h 98 % 0 mm 0 W/m2
00:15 -13.2 °C -13.3 °C 34554.1 hPa NE 7.7 km/h 25.9 km/h 98 % 0 mm 0 W/m2
00:25 -13.1 °C -13.3 °C 34567.7 hPa NNE 15.6 km/h 28.5 km/h 98 % 0 mm 0 W/m2
00:30 -13 °C -13.2 °C 34567.7 hPa ENE 20.8 km/h 28.5 km/h 98 % 0 mm 0 W/m2
00:40 -12.9 °C -13.1 °C 34567.7 hPa NE 2.6 km/h 25.9 km/h 98 % 0 mm 0 W/m2
00:45 -12.9 °C -13.1 °C 34567.7 hPa North 10.3 km/h 28.5 km/h 98 % 0 mm 0 W/m2
00:50 -12.9 °C -13.1 °C 34567.7 hPa NNE 12.9 km/h 28.5 km/h 98 % 0 mm 0 W/m2
00:55 -13 °C -13.2 °C 34577.8 hPa North 7.7 km/h 28.5 km/h 98 % 0 mm 0 W/m2
01:00 -13.1 °C -13.3 °C 34577.8 hPa NNE 28.5 km/h 28.5 km/h 98 % 0 mm 0 W/m2
01:10 -13.2 °C -13.4 °C 34577.8 hPa NNE 20.8 km/h 33.6 km/h 98 % 0 mm 0 W/m2
01:15 -13.2 °C -13.4 °C 34577.8 hPa North 12.9 km/h 46.7 km/h 98 % 0 mm 0 W/m2
01:20 -13.2 °C -13.4 °C 34577.8 hPa NNW 15.6 km/h 46.7 km/h 98 % 0 mm 0 W/m2
01:25 -13.2 °C -13.4 °C 34577.8 hPa NE 7.7 km/h 38.8 km/h 98 % 0 mm 0 W/m2
01:30 -13.2 °C -13.4 °C 34577.8 hPa East 20.8 km/h 38.8 km/h 98 % 0 mm 0 W/m2
01:35 -13.2 °C -13.3 °C 34577.8 hPa ENE 23.3 km/h 36.2 km/h 98 % 0 mm 0 W/m2
01:40 -13.2 °C -13.3 °C 34577.8 hPa NE 20.8 km/h 36.2 km/h 98 % 0 mm 0 W/m2
01:45 -13.2 °C -13.3 °C 34577.8 hPa NNW 5.1 km/h 36.2 km/h 98 % 0 mm 0 W/m2
01:55 -13.1 °C -13.3 °C 34577.8 hPa NNE 7.7 km/h 36.2 km/h 98 % 0 mm 0 W/m2
02:00 -13.1 °C -13.3 °C 34577.8 hPa North 5.1 km/h 36.2 km/h 98 % 0 mm 0 W/m2
02:05 -13.1 °C -13.3 °C 34577.8 hPa NNE 12.9 km/h 33.6 km/h 98 % 0 mm 0 W/m2
02:10 -13.1 °C -13.3 °C 34577.8 hPa North 20.8 km/h 31.1 km/h 98 % 0 mm 0 W/m2
02:15 -13.1 °C -13.2 °C 34577.8 hPa NE 7.7 km/h 33.6 km/h 98 % 0 mm 0 W/m2
02:20 -13 °C -13.2 °C 34577.8 hPa NE 20.8 km/h 33.6 km/h 98 % 0 mm 0 W/m2
02:25 -13 °C -13.2 °C 34577.8 hPa NE 15.6 km/h 38.8 km/h 98 % 0 mm 0 W/m2
02:30 -13 °C -13.2 °C 34577.8 hPa NNE 5.1 km/h 38.8 km/h 98 % 0 mm 0 W/m2
02:35 -12.9 °C -13.2 °C 34577.8 hPa ENE 2.6 km/h 28.5 km/h 97 % 0 mm 0 W/m2
02:40 -12.9 °C -13.2 °C 34577.8 hPa NE 7.7 km/h 25.9 km/h 97 % 0 mm 0 W/m2
02:45 -12.9 °C -13.2 °C 34577.8 hPa ENE 20.8 km/h 33.6 km/h 97 % 0 mm 0 W/m2
02:50 -12.9 °C -13.2 °C 34567.7 hPa NE 5.1 km/h 33.6 km/h 97 % 0 mm 0 W/m2
02:55 -12.9 °C -13.2 °C 34567.7 hPa NE 12.9 km/h 31.1 km/h 97 % 0 mm 0 W/m2
03:00 -12.9 °C -13.2 °C 34567.7 hPa ENE 28.5 km/h 31.1 km/h 97 % 0 mm 0 W/m2
03:05 -12.9 °C -13.2 °C 34567.7 hPa NE 12.9 km/h 31.1 km/h 97 % 0 mm 0 W/m2
03:10 -12.9 °C -13.2 °C 34567.7 hPa ENE 20.8 km/h 31.1 km/h 97 % 0 mm 0 W/m2
03:15 -12.9 °C -13.2 °C 34567.7 hPa North 7.7 km/h 28.5 km/h 96 % 0 mm 0 W/m2
03:20 -12.9 °C -13.2 °C 34554.1 hPa NE 7.7 km/h 28.5 km/h 96 % 0 mm 0 W/m2
03:25 -12.9 °C -13.2 °C 34554.1 hPa ENE 18.2 km/h 28.5 km/h 96 % 0 mm 0 W/m2
03:30 -12.9 °C -13.2 °C 34554.1 hPa North 5.1 km/h 23.3 km/h 96 % 0 mm 0 W/m2
03:35 -12.9 °C -13.2 °C 34567.7 hPa NE 7.7 km/h 25.9 km/h 96 % 0 mm 0 W/m2
03:40 -12.9 °C -13.2 °C 34567.7 hPa North 12.9 km/h 28.5 km/h 96 % 0 mm 0 W/m2
03:45 -12.9 °C -13.2 °C 34567.7 hPa NNE 7.7 km/h 28.5 km/h 96 % 0 mm 0 W/m2
03:50 -12.9 °C -13.2 °C 34567.7 hPa NE 12.9 km/h 23.3 km/h 96 % 0 mm 0 W/m2
03:55 -12.9 °C -13.2 °C 34577.8 hPa North 7.7 km/h 25.9 km/h 96 % 0 mm 0 W/m2
04:00 -12.9 °C -13.2 °C 34577.8 hPa NE 25.9 km/h 25.9 km/h 96 % 0 mm 0 W/m2
04:10 -12.9 °C -13.3 °C 34577.8 hPa North 12.9 km/h 25.9 km/h 95 % 0 mm 0 W/m2
04:20 -12.9 °C -13.3 °C 34577.8 hPa NE 5.1 km/h 23.3 km/h 95 % 0 mm 0 W/m2
04:25 -12.9 °C -13.3 °C 34577.8 hPa North 10.3 km/h 23.3 km/h 95 % 0 mm 0 W/m2
04:30 -12.9 °C -13.3 °C 34577.8 hPa NNW 5.1 km/h 23.3 km/h 95 % 0 mm 0 W/m2
04:35 -12.9 °C -13.3 °C 34591.4 hPa NNE 28.5 km/h 36.2 km/h 95 % 0 mm 0 W/m2
04:40 -12.8 °C -13.3 °C 34591.4 hPa North 10.3 km/h 36.2 km/h 95 % 0 mm 0 W/m2
04:45 -12.8 °C -13.3 °C 34591.4 hPa NNE 23.3 km/h 28.5 km/h 95 % 0 mm 0 W/m2
04:55 -12.8 °C -13.3 °C 34591.4 hPa North 12.9 km/h 38.8 km/h 95 % 0 mm 0 W/m2
05:00 -12.8 °C -13.3 °C 34601.5 hPa North 15.6 km/h 36.2 km/h 95 % 0 mm 0 W/m2
05:05 -12.9 °C -13.4 °C 34591.4 hPa NNE 23.3 km/h 33.6 km/h 94 % 0 mm 0 W/m2
05:10 -12.9 °C -13.4 °C 34591.4 hPa NE 25.9 km/h 33.6 km/h 94 % 0 mm 0 W/m2
05:15 -12.9 °C -13.4 °C 34591.4 hPa NE 2.6 km/h 31.1 km/h 94 % 0 mm 0 W/m2
05:20 -12.9 °C -13.4 °C 34601.5 hPa NNE 10.3 km/h 28.5 km/h 94 % 0 mm 0 W/m2
05:25 -12.9 °C -13.4 °C 34601.5 hPa NNE 18.2 km/h 38.8 km/h 94 % 0 mm 0 W/m2
05:30 -12.9 °C -13.4 °C 34601.5 hPa North 7.7 km/h 38.8 km/h 93 % 0 mm 0 W/m2
05:35 -12.9 °C -13.4 °C 34601.5 hPa NNE 7.7 km/h 33.6 km/h 93 % 0 mm 0 W/m2
05:40 -12.9 °C -13.4 °C 34601.5 hPa NNW 15.6 km/h 33.6 km/h 93 % 0 mm 0 W/m2
05:45 -12.8 °C -13.4 °C 34601.5 hPa North 7.7 km/h 33.6 km/h 93 % 0 mm 0 W/m2
05:50 -12.8 °C -13.4 °C 34601.5 hPa NNE 2.6 km/h 28.5 km/h 93 % 0 mm 0 W/m2
05:55 -12.8 °C -13.4 °C 34601.5 hPa NE 18.2 km/h 25.9 km/h 93 % 0 mm 0 W/m2
06:00 -12.8 °C -13.5 °C 34601.5 hPa NE 5.1 km/h 28.5 km/h 92 % 0 mm 0 W/m2
06:10 -12.9 °C -13.6 °C 34601.5 hPa NE 7.7 km/h 25.9 km/h 92 % 0 mm 0 W/m2
06:15 -12.9 °C -13.6 °C 34601.5 hPa NE 10.3 km/h 25.9 km/h 92 % 0 mm 0 W/m2
06:25 -12.9 °C -13.7 °C 34601.5 hPa ENE 5.1 km/h 18.2 km/h 91 % 0 mm 0 W/m2
06:30 -12.9 °C -13.7 °C 34601.5 hPa Calm   18.2 km/h 91 % 0 mm 0 W/m2
06:40 -13 °C -13.8 °C 34601.5 hPa NE 2.6 km/h 15.6 km/h 91 % 0 mm 0 W/m2
06:45 -13.1 °C -13.8 °C 34601.5 hPa Calm   10.3 km/h 92 % 0 mm 0 W/m2
06:50 -13.1 °C -13.8 °C 34611.7 hPa NNE 2.6 km/h 10.3 km/h 92 % 0 mm 0 W/m2
06:55 -13.1 °C -13.8 °C 34611.7 hPa Calm   10.3 km/h 92 % 0 mm 0 W/m2
07:00 -13.1 °C -13.8 °C 34611.7 hPa Calm   12.9 km/h 92 % 0 mm 0 W/m2
07:05 -13.2 °C -13.8 °C 34611.7 hPa Calm   12.9 km/h 92 % 0 mm 0 W/m2
07:10 -13.2 °C -13.8 °C 34611.7 hPa NNE 5.1 km/h 7.7 km/h 92 % 0 mm 0 W/m2
07:15 -13.2 °C -13.9 °C 34611.7 hPa Calm   7.7 km/h 92 % 0 mm 0 W/m2
07:20 -13.4 °C -14.1 °C 34611.7 hPa Calm   5.1 km/h 92 % 0 mm 5 W/m2
07:25 -13.6 °C -14.2 °C 34611.7 hPa NNE 2.6 km/h 7.7 km/h 93 % 0 mm 7 W/m2
07:30 -13.8 °C -14.3 °C 34611.7 hPa Calm   7.7 km/h 93 % 0 mm 9 W/m2
07:40 -13.9 °C -14.3 °C 34625.2 hPa Calm   5.1 km/h 95 % 0 mm 16 W/m2
07:45 -13.8 °C -14.3 °C 34625.2 hPa Calm   5.1 km/h 95 % 0 mm 25 W/m2
07:50 -13.8 °C -14.3 °C 34625.2 hPa North 5.1 km/h 7.7 km/h 95 % 0 mm 26 W/m2
07:55 -13.8 °C -14.2 °C 34625.2 hPa Calm   10.3 km/h 95 % 0 mm 28 W/m2
08:00 -13.7 °C -14 °C 34625.2 hPa North 2.6 km/h 10.3 km/h 96 % 0 mm 35 W/m2
08:05 -13.4 °C -13.9 °C 34625.2 hPa North 5.1 km/h 12.9 km/h 95 % 0 mm 40 W/m2
08:10 -13.3 °C -13.7 °C 34635.4 hPa North 2.6 km/h 12.9 km/h 95 % 0 mm 40 W/m2
08:15 -13.2 °C -13.6 °C 34635.4 hPa Calm   10.3 km/h 95 % 0 mm 53 W/m2
08:20 -13.1 °C -13.5 °C 34635.4 hPa NNW 7.7 km/h 10.3 km/h 95 % 0 mm 56 W/m2
08:25 -12.9 °C -13.3 °C 34635.4 hPa NNW 2.6 km/h 12.9 km/h 95 % 0 mm 60 W/m2
08:30 -12.8 °C -13.2 °C 34635.4 hPa NNW 7.7 km/h 15.6 km/h 95 % 0 mm 63 W/m2
08:40 -12.6 °C -13.1 °C 34635.4 hPa NNW 12.9 km/h 15.6 km/h 94 % 0 mm 74 W/m2
08:45 -12.6 °C -13.2 °C 34635.4 hPa Calm   15.6 km/h 93 % 0 mm 84 W/m2
08:50 -12.4 °C -13.1 °C 34645.6 hPa North 7.7 km/h 15.6 km/h 93 % 0 mm 86 W/m2
08:55 -12.4 °C -13.1 °C 34645.6 hPa North 2.6 km/h 23.3 km/h 92 % 0 mm 84 W/m2
09:00 -12.3 °C -13.1 °C 34645.6 hPa North 5.1 km/h 23.3 km/h 91 % 0 mm 90 W/m2
09:05 -12.3 °C -13.1 °C 34645.6 hPa NNE 10.3 km/h 23.3 km/h 91 % 0 mm 107 W/m2
09:10 -12.2 °C -13.1 °C 34645.6 hPa North 5.1 km/h 23.3 km/h 90 % 0 mm 162 W/m2
09:15 -12.1 °C -12.9 °C 34645.6 hPa North 12.9 km/h 15.6 km/h 90 % 0 mm 160 W/m2
09:25 -12 °C -13.1 °C 34645.6 hPa North 18.2 km/h 23.3 km/h 88 % 0 mm 141 W/m2
09:30 -12 °C -13.1 °C 34659.1 hPa North 15.6 km/h 28.5 km/h 88 % 0 mm 130 W/m2
09:40 -11.9 °C -13.1 °C 34659.1 hPa NW 10.3 km/h 28.5 km/h 87 % 0 mm 134 W/m2
09:45 -11.9 °C -13.1 °C 34659.1 hPa North 10.3 km/h 23.3 km/h 86 % 0 mm 178 W/m2
09:50 -11.8 °C -13.2 °C 34659.1 hPa North 15.6 km/h 25.9 km/h 85 % 0 mm 153 W/m2
09:55 -11.8 °C -13.1 °C 34659.1 hPa North 15.6 km/h 25.9 km/h 85 % 0 mm 149 W/m2
10:00 -11.8 °C -13.3 °C 34659.1 hPa NNE 18.2 km/h 28.5 km/h 83 % 0 mm 128 W/m2
10:05 -11.8 °C -13.4 °C 34659.1 hPa North 10.3 km/h 28.5 km/h 83 % 0 mm 118 W/m2
10:10 -11.9 °C -13.6 °C 34659.1 hPa ENE 18.2 km/h 28.5 km/h 82 % 0 mm 141 W/m2
10:15 -11.9 °C -13.7 °C 34659.1 hPa NNE 12.9 km/h 28.5 km/h 81 % 0 mm 144 W/m2
10:20 -11.9 °C -13.5 °C 34659.1 hPa NNE 12.9 km/h 28.5 km/h 82 % 0 mm 142 W/m2
10:25 -11.8 °C -13.5 °C 34659.1 hPa NNE 12.9 km/h 28.5 km/h 82 % 0 mm 169 W/m2
10:30 -11.8 °C -13.5 °C 34659.1 hPa NE 5.1 km/h 25.9 km/h 81 % 0 mm 179 W/m2
10:35 -11.7 °C -13.4 °C 34659.1 hPa NE 23.3 km/h 25.9 km/h 81 % 0 mm 204 W/m2
10:40 -11.6 °C -13.4 °C 34659.1 hPa ENE 10.3 km/h 28.5 km/h 80 % 0 mm 197 W/m2
10:45 -11.6 °C -13.5 °C 34659.1 hPa NNE 10.3 km/h 28.5 km/h 79 % 0 mm 213 W/m2
10:50 -11.5 °C -13.4 °C 34659.1 hPa NE 12.9 km/h 25.9 km/h 79 % 0 mm 220 W/m2
10:55 -11.5 °C -13.4 °C 34659.1 hPa NE 5.1 km/h 25.9 km/h 79 % 0 mm 232 W/m2
11:00 -11.4 °C -13.4 °C 34659.1 hPa North 18.2 km/h 25.9 km/h 79 % 0 mm 229 W/m2
11:05 -11.3 °C -13.1 °C 34669.3 hPa NE 15.6 km/h 25.9 km/h 80 % 0 mm 165 W/m2
11:10 -11.4 °C -13.4 °C 34669.3 hPa North 2.6 km/h 28.5 km/h 79 % 0 mm 148 W/m2
11:15 -11.5 °C -13.3 °C 34669.3 hPa North 10.3 km/h 28.5 km/h 80 % 0 mm 141 W/m2
11:20 -11.5 °C -13.4 °C 34669.3 hPa NNE 15.6 km/h 23.3 km/h 79 % 0 mm 139 W/m2
11:25 -11.5 °C -13.3 °C 34682.8 hPa NE 10.3 km/h 23.3 km/h 80 % 0 mm 134 W/m2
11:30 -11.5 °C -13.3 °C 34682.8 hPa NNW 7.7 km/h 25.9 km/h 80 % 0 mm 139 W/m2
11:35 -11.5 °C -13.4 °C 34682.8 hPa NNE 10.3 km/h 33.6 km/h 79 % 0 mm 135 W/m2
11:40 -11.6 °C -13.5 °C 34682.8 hPa NNW 18.2 km/h 33.6 km/h 79 % 0 mm 148 W/m2
11:45 -11.6 °C -13.5 °C 34682.8 hPa North 5.1 km/h 28.5 km/h 79 % 0 mm 155 W/m2
11:50 -11.4 °C -13.3 °C 34682.8 hPa North 18.2 km/h 28.5 km/h 80 % 0 mm 176 W/m2
11:55 -11.5 °C -13.6 °C 34682.8 hPa NNE 18.2 km/h 31.1 km/h 78 % 0 mm 181 W/m2
12:00 -11.4 °C -13.4 °C 34682.8 hPa NE 20.8 km/h 31.1 km/h 79 % 0 mm 207 W/m2
12:05 -11.2 °C -13.2 °C 34682.8 hPa NNE 15.6 km/h 25.9 km/h 79 % 0 mm 287 W/m2
12:10 -11.1 °C -13.4 °C 34682.8 hPa NNE 10.3 km/h 23.3 km/h 76 % 0 mm 343 W/m2
12:15 -11.1 °C -13.4 °C 34682.8 hPa ENE 10.3 km/h 25.9 km/h 75 % 0 mm 267 W/m2
12:25 -10.9 °C -13.3 °C 34693 hPa North 7.7 km/h 28.5 km/h 75 % 0 mm 258 W/m2
12:30 -10.8 °C -13 °C 34693 hPa NNW 15.6 km/h 25.9 km/h 77 % 0 mm 234 W/m2
12:40 -11 °C -13.2 °C 34693 hPa North 18.2 km/h 25.9 km/h 77 % 0 mm 236 W/m2
12:45 -10.9 °C -13.3 °C 34693 hPa NNE 12.9 km/h 25.9 km/h 75 % 0 mm 234 W/m2
12:50 -10.9 °C -13.4 °C 34682.8 hPa North 10.3 km/h 18.2 km/h 74 % 0 mm 230 W/m2
12:55 -10.9 °C -13.4 °C 34682.8 hPa NNE 15.6 km/h 20.8 km/h 74 % 0 mm 255 W/m2
13:00 -10.8 °C -13.2 °C 34682.8 hPa NE 10.3 km/h 20.8 km/h 75 % 0 mm 225 W/m2
13:05 -10.9 °C -13.4 °C 34682.8 hPa North 10.3 km/h 23.3 km/h 74 % 0 mm 253 W/m2
13:10 -10.8 °C -13.3 °C 34682.8 hPa North 12.9 km/h 23.3 km/h 74 % 0 mm 309 W/m2
13:15 -10.6 °C -13.1 °C 34682.8 hPa NNW 10.3 km/h 20.8 km/h 74 % 0 mm 315 W/m2
13:25 -10.6 °C -13.1 °C 34669.3 hPa NNW 12.9 km/h 23.3 km/h 74 % 0 mm 341 W/m2
13:30 -10.4 °C -13.3 °C 34669.3 hPa NE 2.6 km/h 28.5 km/h 71 % 0 mm 304 W/m2
13:35 -10.5 °C -13.3 °C 34669.3 hPa NW 15.6 km/h 28.5 km/h 71 % 0 mm 283 W/m2
13:40 -10.4 °C -13.4 °C 34669.3 hPa North 12.9 km/h 23.3 km/h 70 % 0 mm 784 W/m2
13:45 -9.9 °C -12.9 °C 34659.1 hPa North 2.6 km/h 15.6 km/h 70 % 0 mm 779 W/m2
13:55 -9.6 °C -12.4 °C 34659.1 hPa North 15.6 km/h 25.9 km/h 71 % 0 mm 431 W/m2
14:00 -9.6 °C -13.2 °C 34659.1 hPa Calm   25.9 km/h 65 % 0 mm 710 W/m2
14:10 -9.6 °C -13.1 °C 34645.6 hPa NNW 12.9 km/h 18.2 km/h 66 % 0 mm 719 W/m2
14:15 -9.4 °C -13.4 °C 34645.6 hPa NW 10.3 km/h 18.2 km/h 62 % 0 mm 700 W/m2
14:20 -9.5 °C -13.5 °C 34645.6 hPa WNW 2.6 km/h 18.2 km/h 62 % 0 mm 657 W/m2
14:25 -9.5 °C -13.3 °C 34645.6 hPa NW 7.7 km/h 20.8 km/h 63 % 0 mm 638 W/m2
14:30 -9.6 °C -12.6 °C 34659.1 hPa WNW 12.9 km/h 20.8 km/h 70 % 0 mm 645 W/m2
14:35 -9.6 °C -13.1 °C 34659.1 hPa NW 18.2 km/h 25.9 km/h 66 % 0 mm 624 W/m2
14:40 -9.3 °C -12.4 °C 34659.1 hPa NNW 15.6 km/h 25.9 km/h 70 % 0 mm 548 W/m2
14:45 -9.4 °C -13.1 °C 34659.1 hPa NNE 12.9 km/h 31.1 km/h 65 % 0 mm 578 W/m2
14:50 -9.4 °C -13 °C 34659.1 hPa NNW 10.3 km/h 31.1 km/h 65 % 0 mm 496 W/m2
14:55 -9.4 °C -12.9 °C 34659.1 hPa NW 20.8 km/h 25.9 km/h 66 % 0 mm 492 W/m2
15:05 -9.5 °C -13.3 °C 34659.1 hPa NNE 10.3 km/h 20.8 km/h 64 % 0 mm 524 W/m2
15:10 -9.6 °C -13.1 °C 34645.6 hPa NW 5.1 km/h 20.8 km/h 66 % 0 mm 504 W/m2
15:15 -9.4 °C -12.9 °C 34645.6 hPa NW 10.3 km/h 33.6 km/h 66 % 0 mm 478 W/m2
15:20 -9.3 °C -12.9 °C 34645.6 hPa North 15.6 km/h 33.6 km/h 65 % 0 mm 480 W/m2
15:25 -9.4 °C -13.2 °C 34645.6 hPa NNE 5.1 km/h 20.8 km/h 64 % 0 mm 418 W/m2
15:30 -9.6 °C -13.6 °C 34635.4 hPa WNW 2.6 km/h 20.8 km/h 62 % 0 mm 496 W/m2
15:35 -9.9 °C -13.2 °C 34645.6 hPa West 12.9 km/h 18.2 km/h 68 % 0 mm 520 W/m2
15:40 -10.1 °C -13.2 °C 34635.4 hPa WSW 12.9 km/h 18.2 km/h 69 % 0 mm 404 W/m2
15:50 -10.1 °C -13.1 °C 34645.6 hPa WNW 12.9 km/h 25.9 km/h 70 % 0 mm 413 W/m2
15:55 -10.3 °C -12.9 °C 34635.4 hPa West 10.3 km/h 25.9 km/h 74 % 0 mm 385 W/m2
16:00 -10.4 °C -12.9 °C 34635.4 hPa WNW 7.7 km/h 25.9 km/h 74 % 0 mm 325 W/m2
16:10 -10.1 °C -12.7 °C 34635.4 hPa WSW 15.6 km/h 25.9 km/h 74 % 0 mm 369 W/m2
16:15 -10.1 °C -12.8 °C 34635.4 hPa West 10.3 km/h 28.5 km/h 73 % 0 mm 387 W/m2
16:20 -10.1 °C -12.8 °C 34635.4 hPa NW 10.3 km/h 31.1 km/h 73 % 0 mm 406 W/m2
16:25 -10.3 °C -12.8 °C 34635.4 hPa West 12.9 km/h 31.1 km/h 74 % 0 mm 394 W/m2
16:30 -10.2 °C -12.8 °C 34645.6 hPa West 18.2 km/h 31.1 km/h 74 % 0 mm 301 W/m2
16:40 -10.3 °C -12.7 °C 34635.4 hPa NW 7.7 km/h 33.6 km/h 76 % 0 mm 258 W/m2
16:45 -10.2 °C -12.8 °C 34635.4 hPa WNW 10.3 km/h 31.1 km/h 73 % 0 mm 271 W/m2
16:50 -10.2 °C -12.9 °C 34635.4 hPa West 15.6 km/h 31.1 km/h 73 % 0 mm 200 W/m2
16:55 -10.5 °C -13 °C 34635.4 hPa NNW 10.3 km/h 31.1 km/h 74 % 0 mm 199 W/m2
17:00 -10.6 °C -13.1 °C 34635.4 hPa WNW 23.3 km/h 28.5 km/h 74 % 0 mm 190 W/m2
17:05 -10.5 °C -13.1 °C 34635.4 hPa NW 5.1 km/h 28.5 km/h 74 % 0 mm 209 W/m2
17:10 -10.4 °C -13.1 °C 34635.4 hPa WNW 12.9 km/h 28.5 km/h 73 % 0 mm 195 W/m2
17:15 -10.7 °C -13.4 °C 34635.4 hPa West 18.2 km/h 38.8 km/h 72 % 0 mm 188 W/m2
17:20 -10.7 °C -13.3 °C 34635.4 hPa WNW 28.5 km/h 38.8 km/h 74 % 0 mm 176 W/m2
17:25 -10.8 °C -13.3 °C 34635.4 hPa WNW 18.2 km/h 31.1 km/h 74 % 0 mm 174 W/m2
17:30 -10.9 °C -13.4 °C 34635.4 hPa WNW 23.3 km/h 31.1 km/h 74 % 0 mm 165 W/m2
17:40 -10.9 °C -13.5 °C 34635.4 hPa West 12.9 km/h 28.5 km/h 73 % 0 mm 104 W/m2
17:45 -10.9 °C -13.6 °C 34635.4 hPa WNW 10.3 km/h 33.6 km/h 73 % 0 mm 123 W/m2
17:55 -11 °C -13.6 °C 34635.4 hPa WNW 7.7 km/h 31.1 km/h 73 % 0 mm 77 W/m2
18:00 -11.1 °C -13.3 °C 34635.4 hPa WNW 10.3 km/h 31.1 km/h 76 % 0 mm 79 W/m2
18:05 -11.2 °C -13.6 °C 34635.4 hPa WNW 23.3 km/h 25.9 km/h 75 % 0 mm 84 W/m2
18:10 -11.3 °C -13.7 °C 34635.4 hPa NW 10.3 km/h 31.1 km/h 75 % 0 mm 70 W/m2
18:15 -11.3 °C -13.6 °C 34635.4 hPa NW 15.6 km/h 31.1 km/h 76 % 0 mm 69 W/m2
18:20 -11.4 °C -13.7 °C 34645.6 hPa NW 15.6 km/h 31.1 km/h 76 % 0 mm 62 W/m2
18:25 -11.6 °C -13.8 °C 34645.6 hPa WNW 12.9 km/h 36.2 km/h 76 % 0 mm 56 W/m2
18:30 -11.6 °C -13.9 °C 34635.4 hPa NW 5.1 km/h 36.2 km/h 76 % 0 mm 51 W/m2
18:35 -11.7 °C -13.8 °C 34635.4 hPa WNW 5.1 km/h 33.6 km/h 77 % 0 mm 44 W/m2
18:40 -11.8 °C -13.8 °C 34635.4 hPa WNW 18.2 km/h 25.9 km/h 78 % 0 mm 35 W/m2
18:45 -11.8 °C -13.8 °C 34635.4 hPa West 20.8 km/h 33.6 km/h 79 % 0 mm 30 W/m2
18:50 -11.9 °C -13.9 °C 34635.4 hPa WNW 23.3 km/h 33.6 km/h 79 % 0 mm 25 W/m2
18:55 -12 °C -13.8 °C 34635.4 hPa WNW 20.8 km/h 28.5 km/h 80 % 0 mm 19 W/m2
19:00 -12.1 °C -13.9 °C 34635.4 hPa WNW 10.3 km/h 23.3 km/h 80 % 0 mm 12 W/m2
19:05 -12.2 °C -13.9 °C 34635.4 hPa WNW 15.6 km/h 20.8 km/h 81 % 0 mm 9 W/m2
19:10 -12.2 °C -13.8 °C 34635.4 hPa NW 10.3 km/h 20.8 km/h 82 % 0 mm 5 W/m2
19:15 -12.3 °C -13.8 °C 34645.6 hPa NW 28.5 km/h 28.5 km/h 83 % 0 mm 0 W/m2
19:20 -12.3 °C -13.9 °C 34645.6 hPa WNW 10.3 km/h 28.5 km/h 83 % 0 mm 0 W/m2
19:25 -12.3 °C -13.9 °C 34645.6 hPa WNW 18.2 km/h 28.5 km/h 83 % 0 mm 0 W/m2
19:30 -12.3 °C -13.8 °C 34645.6 hPa WNW 5.1 km/h 25.9 km/h 83 % 0 mm 0 W/m2
19:40 -12.3 °C -13.8 °C 34635.4 hPa WNW 7.7 km/h 28.5 km/h 84 % 0 mm 0 W/m2
19:45 -12.4 °C -13.8 °C 34635.4 hPa West 10.3 km/h 23.3 km/h 84 % 0 mm 0 W/m2
19:55 -12.4 °C -13.7 °C 34635.4 hPa NW 7.7 km/h 20.8 km/h 85 % 0 mm 0 W/m2
20:00 -12.4 °C -13.7 °C 34645.6 hPa WNW 20.8 km/h 20.8 km/h 86 % 0 mm 0 W/m2
20:05 -12.4 °C -13.7 °C 34645.6 hPa WNW 10.3 km/h 20.8 km/h 86 % 0 mm 0 W/m2
20:20 -12.4 °C -13.7 °C 34635.4 hPa NW 12.9 km/h 25.9 km/h 86 % 0 mm 0 W/m2
20:25 -12.6 °C -13.7 °C 34635.4 hPa NW 10.3 km/h 18.2 km/h 87 % 0 mm 0 W/m2
20:30 -12.6 °C -13.7 °C 34635.4 hPa WNW 5.1 km/h 20.8 km/h 87 % 0 mm 0 W/m2
20:40 -12.6 °C -13.7 °C 34635.4 hPa WNW 5.1 km/h 20.8 km/h 87 % 0 mm 0 W/m2
20:45 -12.6 °C -13.7 °C 34635.4 hPa NW 10.3 km/h 20.8 km/h 88 % 0 mm 0 W/m2
20:50 -12.6 °C -13.7 °C 34635.4 hPa NW 10.3 km/h 20.8 km/h 88 % 0 mm 0 W/m2
20:55 -12.7 °C -13.7 °C 34635.4 hPa WNW 10.3 km/h 18.2 km/h 88 % 0 mm 0 W/m2
21:00 -12.6 °C -13.7 °C 34645.6 hPa NW 12.9 km/h 23.3 km/h 88 % 0 mm 0 W/m2
21:05 -12.6 °C -13.6 °C 34645.6 hPa NW 20.8 km/h 23.3 km/h 88 % 0 mm 0 W/m2
21:10 -12.6 °C -13.7 °C 34645.6 hPa NW 18.2 km/h 23.3 km/h 87 % 0 mm 0 W/m2
21:20 -12.6 °C -13.7 °C 34635.4 hPa WNW 10.3 km/h 25.9 km/h 87 % 0 mm 0 W/m2
21:30 -12.6 °C -13.7 °C 34645.6 hPa NW 18.2 km/h 36.2 km/h 87 % 0 mm 0 W/m2
21:40 -12.6 °C -13.8 °C 34635.4 hPa WNW 20.8 km/h 33.6 km/h 86 % 0 mm 0 W/m2
21:45 -12.6 °C -13.8 °C 34635.4 hPa WNW 15.6 km/h 33.6 km/h 86 % 0 mm 0 W/m2
21:50 -12.6 °C -13.8 °C 34635.4 hPa NW 7.7 km/h 33.6 km/h 86 % 0 mm 0 W/m2
21:55 -12.6 °C -13.7 °C 34635.4 hPa WNW 10.3 km/h 33.6 km/h 87 % 0 mm 0 W/m2
22:00 -12.6 °C -13.8 °C 34635.4 hPa West 15.6 km/h 33.6 km/h 86 % 0 mm 0 W/m2
22:05 -12.6 °C -13.8 °C 34635.4 hPa WNW 23.3 km/h 28.5 km/h 86 % 0 mm 0 W/m2
22:10 -12.6 °C -13.8 °C 34645.6 hPa West 12.9 km/h 31.1 km/h 86 % 0 mm 0 W/m2
22:15 -12.7 °C -13.8 °C 34645.6 hPa NW 7.7 km/h 31.1 km/h 87 % 0 mm 0 W/m2
22:20 -12.7 °C -13.9 °C 34635.4 hPa NW 15.6 km/h 23.3 km/h 87 % 0 mm 0 W/m2
22:25 -12.8 °C -13.9 °C 34645.6 hPa WNW 10.3 km/h 28.5 km/h 87 % 0 mm 0 W/m2
22:30 -12.9 °C -14 °C 34645.6 hPa NNW 7.7 km/h 31.1 km/h 87 % 0 mm 0 W/m2
22:35 -12.9 °C -14.1 °C 34645.6 hPa WNW 7.7 km/h 31.1 km/h 86 % 0 mm 0 W/m2
22:40 -12.9 °C -14.1 °C 34645.6 hPa WNW 15.6 km/h 25.9 km/h 86 % 0 mm 0 W/m2
22:45 -12.9 °C -14.2 °C 34645.6 hPa NNW 15.6 km/h 25.9 km/h 85 % 0 mm 0 W/m2
22:55 -13 °C -14.3 °C 34635.4 hPa WNW 15.6 km/h 25.9 km/h 85 % 0 mm 0 W/m2
23:00 -13 °C -14.3 °C 34635.4 hPa NW 5.1 km/h 25.9 km/h 85 % 0 mm 0 W/m2
23:05 -13 °C -14.3 °C 34635.4 hPa NW 7.7 km/h 28.5 km/h 85 % 0 mm 0 W/m2
23:10 -13.1 °C -14.4 °C 34645.6 hPa NW 12.9 km/h 28.5 km/h 85 % 0 mm 0 W/m2
23:15 -13.2 °C -14.5 °C 34645.6 hPa NW 7.7 km/h 28.5 km/h 85 % 0 mm 0 W/m2
23:20 -13.2 °C -14.6 °C 34645.6 hPa NW 10.3 km/h 28.5 km/h 85 % 0 mm 0 W/m2
23:30 -13.3 °C -14.5 °C 34645.6 hPa NNW 5.1 km/h 31.1 km/h 86 % 0 mm 0 W/m2
23:40 -13.4 °C -14.7 °C 34645.6 hPa WNW 10.3 km/h 20.8 km/h 86 % 0 mm 0 W/m2
23:45 -13.4 °C -14.7 °C 34645.6 hPa NW 2.6 km/h 18.2 km/h 86 % 0 mm 0 W/m2
23:50 -13.4 °C -14.7 °C 34645.6 hPa WNW 5.1 km/h 20.8 km/h 86 % 0 mm 0 W/m2
23:55 -13.7 °C -14.8 °C 34645.6 hPa WNW 10.3 km/h 20.8 km/h 87 % 0 mm 0 W/m2
Avec l'autorisation de Weather Underground - 1.5 mb